Terminal Aerodrome Forecast
Issued by NWS Charleston, WV

Home | Current Version | Previous Version | Text Only | Print | Product List | Glossary On
Versions: 1 2 3 4 5 6 7 8 9 10 11 12 13 14 15 16 17 18 19 20 21 22 23 24 25 26 27 28 29
039
FTUS41 KRLX 262336
TAFHTS
TAF
KHTS 262336Z 2700/2724 00000KT P6SM BKN150
     FM271000 00000KT 5SM BR BKN035
     FM271300 23003KT P6SM BKN040
     FM271400 25004KT P6SM SCT110
     FM271900 26008KT P6SM FEW050=

USA.gov is the U.S. government's official web portal to all federal, state and local government web resources and services.